createdAt,value
2022-08-26T00:02:26.322Z,12.90
2022-08-26T00:05:52.935Z,12.50
2022-08-26T00:09:20.044Z,12.25
2022-08-26T00:12:47.299Z,12.35
2022-08-26T00:19:39.172Z,11.65
2022-08-26T00:23:05.431Z,12.25
2022-08-26T00:26:33.893Z,12.35
2022-08-26T00:30:06.452Z,12.80
2022-08-26T00:33:32.470Z,12.30
2022-08-26T00:36:58.293Z,12.63
2022-08-26T00:40:28.230Z,12.18
2022-08-26T00:43:54.232Z,11.88
2022-08-26T00:47:31.944Z,12.35
2022-08-26T00:55:13.451Z,11.60
2022-08-26T00:58:48.272Z,11.30
2022-08-26T01:02:20.998Z,12.00
2022-08-26T01:05:55.549Z,11.20
2022-08-26T01:09:23.394Z,10.60
2022-08-26T01:13:03.579Z,10.50
2022-08-26T01:16:35.893Z,11.00
2022-08-26T01:20:24.421Z,11.32
2022-08-26T01:23:59.100Z,10.63
2022-08-26T01:27:32.707Z,10.25
2022-08-26T01:31:01.640Z,11.20
2022-08-26T01:34:37.869Z,10.07
2022-08-26T01:38:07.635Z,10.68
2022-08-26T01:41:36.775Z,11.27
2022-08-26T01:45:07.490Z,10.80
2022-08-26T01:48:35.668Z,10.35
2022-08-26T01:52:04.284Z,10.88
2022-08-26T01:55:32.902Z,10.63
2022-08-26T01:59:05.763Z,10.75
2022-08-26T02:02:33.396Z,10.65
2022-08-26T02:06:05.453Z,10.27
2022-08-26T02:09:41.634Z,9.10
2022-08-26T02:13:10.549Z,9.77
2022-08-26T02:16:38.905Z,9.50
2022-08-26T02:20:15.068Z,9.40
2022-08-26T02:23:43.181Z,9.52
2022-08-26T02:27:14.458Z,8.75
2022-08-26T02:30:43.140Z,8.68
2022-08-26T02:34:18.066Z,8.60
2022-08-26T02:37:44.130Z,8.95
2022-08-26T02:41:12.021Z,9.23
2022-08-26T02:44:37.947Z,9.05
2022-08-26T02:48:09.447Z,9.30
2022-08-26T02:51:36.301Z,8.77
2022-08-26T02:55:02.377Z,9.20
2022-08-26T02:58:28.372Z,7.63
2022-08-26T03:01:56.006Z,8.30
2022-08-26T03:05:23.959Z,8.40
2022-08-26T03:08:50.533Z,8.98
2022-08-26T03:12:17.930Z,8.60
2022-08-26T03:15:44.683Z,8.40
2022-08-26T03:19:13.594Z,7.90
2022-08-26T03:22:43.692Z,8.07
2022-08-26T03:26:11.347Z,8.75
2022-08-26T03:29:57.707Z,8.23
2022-08-26T03:33:24.257Z,8.40
2022-08-26T03:36:50.542Z,7.65
2022-08-26T03:40:16.587Z,7.97
2022-08-26T03:43:47.977Z,7.75
2022-08-26T03:47:14.105Z,8.55
2022-08-26T03:50:39.988Z,8.02
2022-08-26T03:54:06.198Z,7.95
2022-08-26T03:57:34.701Z,8.35
2022-08-26T04:01:01.061Z,9.07
2022-08-26T04:04:26.910Z,8.70
2022-08-26T04:07:56.378Z,9.38
2022-08-26T04:11:23.141Z,9.10
2022-08-26T04:14:49.673Z,9.40
2022-08-26T04:18:16.501Z,8.18
2022-08-26T04:21:45.300Z,8.27
2022-08-26T04:25:12.846Z,8.73
2022-08-26T04:28:38.956Z,7.78
2022-08-26T04:32:05.069Z,7.95
2022-08-26T04:35:32.150Z,9.00
2022-08-26T04:38:59.920Z,8.38
2022-08-26T04:42:26.042Z,8.07
2022-08-26T04:45:56.513Z,8.00
2022-08-26T04:49:22.604Z,8.05
2022-08-26T04:52:48.549Z,8.10
2022-08-26T04:56:14.686Z,8.32
2022-08-26T04:59:40.602Z,7.82
2022-08-26T05:03:07.046Z,8.32
2022-08-26T05:06:40.391Z,7.25
2022-08-26T05:10:08.760Z,7.95
2022-08-26T05:13:35.665Z,7.35
2022-08-26T05:17:03.418Z,7.68
2022-08-26T05:20:30.733Z,7.38
2022-08-26T05:23:57.523Z,6.95
2022-08-26T05:27:25.991Z,7.68
2022-08-26T05:30:55.934Z,6.88
2022-08-26T05:34:22.231Z,6.68
2022-08-26T05:37:48.196Z,7.13
2022-08-26T05:41:19.026Z,7.70
2022-08-26T05:44:55.351Z,7.88
2022-08-26T05:48:22.511Z,6.63
2022-08-26T05:51:50.501Z,7.32
2022-08-26T05:55:16.879Z,7.47
2022-08-26T05:58:44.774Z,7.28
2022-08-26T06:02:13.732Z,7.20
2022-08-26T06:05:40.488Z,6.95
2022-08-26T06:09:09.370Z,6.93
2022-08-26T06:12:37.674Z,7.88
2022-08-26T06:16:05.763Z,6.75
2022-08-26T06:19:34.434Z,7.05
2022-08-26T06:23:18.664Z,7.13
2022-08-26T06:26:50.291Z,6.38
2022-08-26T06:30:18.064Z,7.60
2022-08-26T06:33:44.873Z,7.03
2022-08-26T06:37:37.091Z,6.18
2022-08-26T06:41:03.917Z,7.38
2022-08-26T06:44:30.179Z,6.70
2022-08-26T06:47:56.228Z,6.10
2022-08-26T06:51:24.306Z,7.93
2022-08-26T06:54:52.399Z,6.30
2022-08-26T06:58:22.613Z,6.53
2022-08-26T07:01:49.698Z,7.25
2022-08-26T07:05:19.080Z,7.45
2022-08-26T07:08:46.797Z,7.88
2022-08-26T07:12:13.442Z,7.32
2022-08-26T07:15:45.597Z,8.07
2022-08-26T07:19:11.708Z,9.40
2022-08-26T07:22:38.857Z,9.23
2022-08-26T07:26:11.605Z,10.15
2022-08-26T07:29:39.675Z,10.20
2022-08-26T07:33:06.163Z,9.10
2022-08-26T07:36:35.114Z,10.75
2022-08-26T07:40:01.777Z,8.88
2022-08-26T07:43:28.833Z,8.73
2022-08-26T07:46:55.890Z,7.20
2022-08-26T07:50:47.081Z,7.72
2022-08-26T07:54:10.388Z,10.02
2022-08-26T07:57:39.956Z,8.73
2022-08-26T08:01:07.908Z,8.02
2022-08-26T08:04:34.852Z,8.52
2022-08-26T08:11:48.058Z,8.80
2022-08-26T08:15:14.892Z,9.32
2022-08-26T08:22:17.317Z,7.93
2022-08-26T08:25:44.017Z,9.05
2022-08-26T08:29:10.241Z,9.15
2022-08-26T08:32:38.481Z,8.67
2022-08-26T08:36:06.294Z,8.45
2022-08-26T08:39:35.994Z,8.85
2022-08-26T08:43:06.810Z,7.80
2022-08-26T08:46:36.102Z,8.15
2022-08-26T08:50:12.539Z,7.63
2022-08-26T08:53:43.165Z,7.93
2022-08-26T08:57:48.749Z,7.90
2022-08-26T09:01:36.503Z,6.60
2022-08-26T09:05:15.355Z,7.03
2022-08-26T09:08:46.737Z,6.57
2022-08-26T09:12:29.612Z,6.60
2022-08-26T09:16:10.328Z,7.47
2022-08-26T09:19:49.324Z,6.40
2022-08-26T09:23:34.464Z,6.28
2022-08-26T09:27:11.998Z,6.25
2022-08-26T09:30:42.546Z,5.80
2022-08-26T09:34:10.748Z,6.28
2022-08-26T09:41:27.234Z,5.97
2022-08-26T09:45:13.220Z,5.72
2022-08-26T09:48:51.634Z,5.32
2022-08-26T09:52:23.848Z,6.47
2022-08-26T09:56:14.835Z,6.25
2022-08-26T09:59:42.458Z,5.72
2022-08-26T10:03:39.413Z,6.15
2022-08-26T10:07:33.999Z,5.50
2022-08-26T10:11:06.049Z,6.00
2022-08-26T10:14:40.051Z,5.95
2022-08-26T10:18:15.425Z,6.68
2022-08-26T10:21:54.116Z,5.82
2022-08-26T10:25:29.400Z,5.60
2022-08-26T10:29:08.168Z,5.97
2022-08-26T10:33:04.832Z,6.15
2022-08-26T10:37:15.909Z,6.20
2022-08-26T10:44:27.420Z,5.85
2022-08-26T10:48:10.157Z,5.50
2022-08-26T10:51:53.294Z,5.50
2022-08-26T10:55:48.518Z,5.95
2022-08-26T10:59:40.402Z,5.32
2022-08-26T11:03:22.076Z,5.20
2022-08-26T11:07:26.123Z,5.97
2022-08-26T11:10:52.026Z,5.35
2022-08-26T11:14:29.113Z,5.47
2022-08-26T11:18:00.559Z,5.20
2022-08-26T11:21:49.428Z,5.82
2022-08-26T11:25:55.197Z,4.97
2022-08-26T11:29:54.891Z,5.43
2022-08-26T11:33:43.320Z,5.20
2022-08-26T11:37:14.093Z,5.38
2022-08-26T11:41:01.805Z,6.60
2022-08-26T11:44:41.312Z,5.88
2022-08-26T11:48:31.114Z,6.22
2022-08-26T11:52:08.666Z,5.45
2022-08-26T11:55:36.424Z,6.18
2022-08-26T11:59:07.544Z,6.40
2022-08-26T12:02:36.300Z,6.72
2022-08-26T12:06:02.777Z,6.50
2022-08-26T12:09:34.719Z,6.78
2022-08-26T12:13:27.817Z,6.72
2022-08-26T12:16:55.343Z,6.57
2022-08-26T12:20:30.432Z,6.10
2022-08-26T12:23:59.032Z,6.72
2022-08-26T12:27:29.537Z,6.68
2022-08-26T12:31:05.807Z,5.60
2022-08-26T12:34:32.657Z,6.18
2022-08-26T12:37:58.886Z,6.35
2022-08-26T12:41:49.386Z,6.57
2022-08-26T12:45:38.187Z,5.38
2022-08-26T12:49:08.520Z,6.85
2022-08-26T12:52:39.281Z,5.90
2022-08-26T12:56:28.465Z,6.07
2022-08-26T13:00:30.451Z,6.65
2022-08-26T13:03:57.000Z,7.05
2022-08-26T13:07:26.849Z,6.53
2022-08-26T13:11:14.219Z,5.78
2022-08-26T13:14:40.741Z,10.18
2022-08-26T13:21:37.535Z,6.30
2022-08-26T13:25:08.764Z,6.47
2022-08-26T13:28:35.374Z,5.40
2022-08-26T13:32:01.537Z,7.07
2022-08-26T13:35:27.434Z,5.60
2022-08-26T13:38:53.313Z,6.00
2022-08-26T13:42:22.559Z,5.80
2022-08-26T13:45:49.748Z,6.30
2022-08-26T13:49:16.373Z,6.97
2022-08-26T13:52:42.323Z,6.38
2022-08-26T13:56:11.063Z,6.25
2022-08-26T13:59:37.215Z,6.72
2022-08-26T14:03:05.087Z,6.05
2022-08-26T14:06:31.733Z,5.90
2022-08-26T14:09:58.136Z,7.35
2022-08-26T14:13:24.099Z,5.88
2022-08-26T14:16:59.004Z,6.88
2022-08-26T14:20:29.273Z,6.03
2022-08-26T14:24:00.325Z,5.95
2022-08-26T14:27:27.505Z,6.13
2022-08-26T14:34:24.576Z,6.43
2022-08-26T14:37:51.626Z,6.57
2022-08-26T14:41:19.432Z,6.82
2022-08-26T14:44:55.354Z,6.05
2022-08-26T14:48:21.569Z,7.10
2022-08-26T14:51:47.906Z,6.72
2022-08-26T14:55:14.864Z,6.88
2022-08-26T14:58:40.946Z,7.20
2022-08-26T15:02:07.687Z,5.88
2022-08-26T15:05:34.383Z,6.78
2022-08-26T15:12:26.453Z,6.30
2022-08-26T15:15:54.073Z,7.13
2022-08-26T15:19:26.968Z,6.70
2022-08-26T15:22:53.786Z,6.38
2022-08-26T15:26:20.514Z,5.57
2022-08-26T15:33:15.241Z,7.05
2022-08-26T15:36:42.916Z,6.75
2022-08-26T15:40:10.274Z,6.57
2022-08-26T15:43:39.099Z,6.90
2022-08-26T15:47:10.146Z,6.40
2022-08-26T15:50:37.338Z,5.97
2022-08-26T15:54:05.055Z,6.10
2022-08-26T15:57:35.829Z,6.20
2022-08-26T16:01:02.933Z,7.22
2022-08-26T16:04:29.700Z,7.15
2022-08-26T16:07:55.563Z,6.80
2022-08-26T16:11:22.819Z,6.00
2022-08-26T16:14:52.743Z,6.95
2022-08-26T16:18:20.544Z,7.28
2022-08-26T16:21:51.812Z,6.22
2022-08-26T16:25:18.569Z,6.45
2022-08-26T16:28:44.741Z,6.80
2022-08-26T16:32:11.047Z,6.82
2022-08-26T16:35:36.925Z,6.25
2022-08-26T16:39:04.695Z,6.47
2022-08-26T16:42:30.854Z,5.95
2022-08-26T16:45:59.421Z,6.97
2022-08-26T16:49:25.454Z,7.18
2022-08-26T16:52:55.885Z,6.53
2022-08-26T16:56:30.651Z,6.57
2022-08-26T17:00:02.617Z,6.63
2022-08-26T17:03:28.895Z,7.10
2022-08-26T17:06:55.140Z,7.17
2022-08-26T17:10:22.068Z,6.78
2022-08-26T17:17:14.200Z,7.05
2022-08-26T17:20:40.835Z,7.43
2022-08-26T17:24:07.081Z,6.20
2022-08-26T17:27:33.374Z,7.50
2022-08-26T17:30:59.948Z,7.70
2022-08-26T17:34:26.654Z,8.60
2022-08-26T17:37:53.100Z,10.60
2022-08-26T17:41:20.231Z,8.85
2022-08-26T17:44:46.618Z,9.15
2022-08-26T17:48:12.679Z,9.80
2022-08-26T17:51:39.676Z,11.60
2022-08-26T17:55:06.888Z,11.93
2022-08-26T17:58:33.528Z,11.30
2022-08-26T18:02:01.062Z,11.30
2022-08-26T18:05:27.470Z,11.07
2022-08-26T18:08:53.932Z,9.77
2022-08-26T18:12:20.709Z,11.40
2022-08-26T18:15:51.415Z,10.93
2022-08-26T18:19:18.690Z,10.02
2022-08-26T18:22:45.318Z,11.10
2022-08-26T18:26:18.312Z,10.73
2022-08-26T18:29:45.620Z,10.68
2022-08-26T18:33:12.201Z,10.88
2022-08-26T18:36:40.338Z,10.90
2022-08-26T18:40:08.585Z,9.27
2022-08-26T18:43:34.875Z,10.15
2022-08-26T18:47:05.016Z,9.70
2022-08-26T18:50:33.106Z,9.43
2022-08-26T18:54:01.215Z,10.00
2022-08-26T18:57:27.661Z,10.18
2022-08-26T19:00:53.611Z,9.88
2022-08-26T19:04:19.639Z,9.80
2022-08-26T19:07:47.833Z,9.75
2022-08-26T19:11:14.707Z,10.18
2022-08-26T19:14:41.944Z,10.00
2022-08-26T19:21:38.333Z,9.88
2022-08-26T19:25:06.707Z,9.65
2022-08-26T19:28:32.818Z,9.30
2022-08-26T19:31:59.214Z,10.05
2022-08-26T19:35:25.433Z,10.95
2022-08-26T19:38:51.506Z,8.60
2022-08-26T19:42:20.130Z,10.10
2022-08-26T19:45:47.501Z,9.23
2022-08-26T19:49:13.380Z,8.50
2022-08-26T19:52:40.635Z,8.90
2022-08-26T19:56:07.695Z,9.02
2022-08-26T19:59:36.440Z,9.52
2022-08-26T20:03:03.994Z,10.55
2022-08-26T20:06:30.005Z,10.60
2022-08-26T20:09:56.147Z,10.70
2022-08-26T20:13:22.354Z,9.45
2022-08-26T20:16:49.563Z,11.27
2022-08-26T20:20:34.273Z,9.55
2022-08-26T20:24:09.242Z,10.90
2022-08-26T20:27:38.218Z,10.20
2022-08-26T20:31:05.802Z,9.43
2022-08-26T20:34:32.407Z,8.63
2022-08-26T20:37:58.394Z,9.43
2022-08-26T20:41:25.944Z,9.90
2022-08-26T20:44:54.755Z,9.52
2022-08-26T20:48:21.134Z,10.43
2022-08-26T20:51:51.693Z,8.50
2022-08-26T20:55:18.912Z,8.85
2022-08-26T21:02:16.514Z,9.63
2022-08-26T21:05:42.499Z,8.98
2022-08-26T21:09:10.829Z,8.95
2022-08-26T21:12:37.264Z,8.30
2022-08-26T21:16:04.111Z,8.27
2022-08-26T21:19:30.037Z,8.23
2022-08-26T21:22:56.113Z,7.63
2022-08-26T21:26:22.570Z,8.68
2022-08-26T21:29:48.837Z,8.45
2022-08-26T21:33:17.869Z,8.73
2022-08-26T21:36:50.261Z,8.18
2022-08-26T21:40:16.213Z,8.77
2022-08-26T21:43:42.457Z,9.48
2022-08-26T21:47:10.243Z,9.57
2022-08-26T21:50:37.889Z,9.40
2022-08-26T21:54:08.625Z,9.40
2022-08-26T21:57:37.324Z,8.80
2022-08-26T22:01:05.292Z,8.90
2022-08-26T22:04:31.203Z,9.10
2022-08-26T22:07:57.359Z,8.52
2022-08-26T22:11:23.980Z,9.20
2022-08-26T22:14:50.547Z,8.27
2022-08-26T22:18:17.154Z,8.85
2022-08-26T22:21:43.031Z,10.50
2022-08-26T22:25:09.155Z,8.63
2022-08-26T22:28:35.779Z,9.75
2022-08-26T22:32:02.018Z,9.18
2022-08-26T22:35:29.754Z,8.68
2022-08-26T22:38:59.624Z,8.45
2022-08-26T22:42:25.470Z,7.82
2022-08-26T22:45:51.784Z,8.48
2022-08-26T22:49:19.931Z,8.60
2022-08-26T22:52:46.003Z,7.88
2022-08-26T22:56:12.383Z,8.45
2022-08-26T22:59:38.325Z,8.47
2022-08-26T23:03:04.695Z,7.97
2022-08-26T23:06:31.025Z,9.10
2022-08-26T23:09:57.000Z,8.60
2022-08-26T23:13:22.957Z,8.07
2022-08-26T23:16:48.959Z,8.60
2022-08-26T23:20:16.517Z,8.50
2022-08-26T23:23:42.911Z,9.30
2022-08-26T23:27:10.508Z,8.40
2022-08-26T23:30:38.566Z,8.43
2022-08-26T23:34:22.879Z,8.43
2022-08-26T23:37:52.662Z,8.25
2022-08-26T23:41:31.646Z,8.23
2022-08-26T23:44:58.020Z,8.43
2022-08-26T23:48:23.829Z,8.23
2022-08-26T23:52:08.010Z,8.20
2022-08-26T23:55:34.603Z,8.30
2022-08-26T23:59:01.612Z,8.95
